createdAt,value
2017-11-26T00:00:31.834Z,0.00
2017-11-26T00:01:31.806Z,0.00
2017-11-26T00:02:31.780Z,0.00
2017-11-26T00:03:31.753Z,0.00
2017-11-26T00:04:31.727Z,0.00
2017-11-26T00:05:31.704Z,0.00
2017-11-26T00:06:31.674Z,0.00
2017-11-26T00:07:31.649Z,0.00
2017-11-26T00:08:31.622Z,0.00
2017-11-26T00:09:31.596Z,0.00
2017-11-26T00:10:31.570Z,0.00
2017-11-26T00:11:31.543Z,0.00
2017-11-26T00:12:31.518Z,0.00
2017-11-26T00:13:31.491Z,0.00
2017-11-26T00:14:31.465Z,0.00
2017-11-26T00:15:39.093Z,0.00
2017-11-26T00:17:24.800Z,0.00
2017-11-26T00:18:24.753Z,0.00
2017-11-26T00:20:18.099Z,0.00
2017-11-26T00:21:18.070Z,0.00
2017-11-26T00:23:11.444Z,0.00
2017-11-26T00:24:11.391Z,0.00
2017-11-26T00:26:04.737Z,0.00
2017-11-26T00:27:04.710Z,0.00
2017-11-26T00:28:58.078Z,0.00
2017-11-26T00:29:58.027Z,0.00
2017-11-26T00:31:51.379Z,0.00
2017-11-26T00:32:51.347Z,0.00
2017-11-26T00:34:44.720Z,0.00
2017-11-26T00:35:44.668Z,0.00
2017-11-26T00:36:44.639Z,0.00
2017-11-26T00:37:44.626Z,0.00
2017-11-26T00:38:44.592Z,0.00
2017-11-26T00:39:44.565Z,0.00
2017-11-26T00:40:44.546Z,0.00
2017-11-26T00:41:44.526Z,0.00
2017-11-26T00:42:44.485Z,0.00
2017-11-26T00:43:44.456Z,0.00
2017-11-26T00:44:44.433Z,0.00
2017-11-26T00:45:44.405Z,0.00
2017-11-26T00:46:44.380Z,0.00
2017-11-26T00:47:44.354Z,0.00
2017-11-26T00:48:44.327Z,0.00
2017-11-26T00:49:44.301Z,0.00
2017-11-26T00:50:44.274Z,0.00
2017-11-26T00:51:44.250Z,0.00
2017-11-26T00:52:44.225Z,0.00
2017-11-26T00:53:44.196Z,0.00
2017-11-26T00:54:44.170Z,0.00
2017-11-26T00:55:44.145Z,0.00
2017-11-26T00:56:44.116Z,0.00
2017-11-26T00:57:44.091Z,0.00
2017-11-26T00:58:44.066Z,0.00
2017-11-26T00:59:44.038Z,0.00
2017-11-26T01:00:44.016Z,0.00
2017-11-26T01:01:43.989Z,0.00
2017-11-26T01:02:43.960Z,0.00
2017-11-26T01:03:43.934Z,0.00
2017-11-26T01:04:43.906Z,0.00
2017-11-26T01:05:43.880Z,0.00
2017-11-26T01:06:43.854Z,0.00
2017-11-26T01:07:43.827Z,0.00
2017-11-26T01:08:43.800Z,0.00
2017-11-26T01:09:43.776Z,0.00
2017-11-26T01:10:43.749Z,0.00
2017-11-26T01:11:43.725Z,0.00
2017-11-26T01:12:43.695Z,0.00
2017-11-26T01:13:43.670Z,0.00
2017-11-26T01:14:43.646Z,0.00
2017-11-26T01:15:43.618Z,0.00
2017-11-26T01:16:43.590Z,0.00
2017-11-26T01:17:43.566Z,0.00
2017-11-26T01:18:43.540Z,0.00
2017-11-26T01:19:43.512Z,0.00
2017-11-26T01:20:43.486Z,0.00
2017-11-26T01:21:43.459Z,0.00
2017-11-26T01:22:43.434Z,0.00
2017-11-26T01:23:43.409Z,0.00
2017-11-26T01:24:43.380Z,0.00
2017-11-26T01:25:43.355Z,0.00
2017-11-26T01:26:43.329Z,0.00
2017-11-26T01:27:43.303Z,0.00
2017-11-26T01:28:43.276Z,0.00
2017-11-26T01:29:43.250Z,0.00
2017-11-26T01:30:43.222Z,0.00
2017-11-26T01:31:43.196Z,0.00
2017-11-26T01:32:43.171Z,0.00
2017-11-26T01:33:43.153Z,0.00
2017-11-26T01:34:43.158Z,0.00
2017-11-26T01:35:43.087Z,0.00
2017-11-26T01:36:43.087Z,0.00
2017-11-26T01:37:43.037Z,0.00
2017-11-26T01:38:43.014Z,0.00
2017-11-26T01:39:42.988Z,0.00
2017-11-26T01:40:42.986Z,0.00
2017-11-26T01:41:42.932Z,0.00
2017-11-26T01:42:42.909Z,0.00
2017-11-26T01:43:42.876Z,0.00
2017-11-26T01:44:42.855Z,0.00
2017-11-26T01:45:42.828Z,0.00
2017-11-26T01:46:42.801Z,0.00
2017-11-26T01:47:42.776Z,0.00
2017-11-26T01:48:42.748Z,0.00
2017-11-26T01:49:42.722Z,0.00
2017-11-26T01:50:42.695Z,0.00
2017-11-26T01:51:42.669Z,0.00
2017-11-26T01:52:42.643Z,0.00
2017-11-26T01:53:42.616Z,0.00
2017-11-26T01:54:42.590Z,0.00
2017-11-26T01:55:42.563Z,0.00
2017-11-26T01:56:42.536Z,0.00
2017-11-26T01:57:42.509Z,0.00
2017-11-26T01:58:42.484Z,0.00
2017-11-26T01:59:42.456Z,0.00
2017-11-26T02:00:42.429Z,0.00
2017-11-26T02:01:42.401Z,0.00
2017-11-26T02:02:42.377Z,0.00
2017-11-26T02:03:42.354Z,0.00
2017-11-26T02:04:42.324Z,0.00
2017-11-26T02:05:42.296Z,0.00
2017-11-26T02:06:42.270Z,0.00
2017-11-26T02:07:42.242Z,0.00
2017-11-26T02:08:42.217Z,0.00
2017-11-26T02:09:42.190Z,0.00
2017-11-26T02:10:42.164Z,0.00
2017-11-26T02:11:42.143Z,0.00
2017-11-26T02:12:42.111Z,0.00
2017-11-26T02:13:42.085Z,0.00
2017-11-26T02:14:42.057Z,0.00
2017-11-26T02:15:42.031Z,0.00
2017-11-26T02:16:42.005Z,0.00
2017-11-26T02:17:41.979Z,0.00
2017-11-26T02:18:41.953Z,0.00
2017-11-26T02:19:41.926Z,0.00
2017-11-26T02:20:41.901Z,0.00
2017-11-26T02:21:41.872Z,0.00
2017-11-26T02:22:41.845Z,0.00
2017-11-26T02:23:41.820Z,0.00
2017-11-26T02:24:41.792Z,0.00
2017-11-26T02:25:41.768Z,0.00
2017-11-26T02:26:41.741Z,0.00
2017-11-26T02:27:41.713Z,0.00
2017-11-26T02:28:41.690Z,0.00
2017-11-26T02:29:41.662Z,0.00
2017-11-26T02:30:41.637Z,0.00
2017-11-26T02:31:41.609Z,0.00
2017-11-26T02:32:41.582Z,0.00
2017-11-26T02:33:41.556Z,0.00
2017-11-26T02:34:41.530Z,0.00
2017-11-26T02:35:41.504Z,0.00
2017-11-26T02:36:41.477Z,0.00
2017-11-26T02:37:41.452Z,0.00
2017-11-26T02:38:41.426Z,0.00
2017-11-26T02:39:41.399Z,0.00
2017-11-26T02:40:41.371Z,0.00
2017-11-26T02:41:41.365Z,0.00
2017-11-26T02:42:41.319Z,0.00
2017-11-26T02:43:41.294Z,0.00
2017-11-26T02:44:41.265Z,0.00
2017-11-26T02:45:41.242Z,0.00
2017-11-26T02:46:41.213Z,0.00
2017-11-26T02:47:41.183Z,0.00
2017-11-26T02:48:41.162Z,0.00
2017-11-26T02:49:41.134Z,0.00
2017-11-26T02:50:41.108Z,0.00
2017-11-26T02:51:41.083Z,0.00
2017-11-26T02:52:41.055Z,0.00
2017-11-26T02:53:41.028Z,0.00
2017-11-26T02:54:41.001Z,0.00
2017-11-26T02:55:40.976Z,0.00
2017-11-26T02:56:40.948Z,0.00
2017-11-26T02:57:40.923Z,0.00
2017-11-26T02:58:40.896Z,0.00
2017-11-26T02:59:40.886Z,0.00
2017-11-26T03:00:40.843Z,0.00
2017-11-26T03:01:40.817Z,0.00
2017-11-26T03:02:40.791Z,0.00
2017-11-26T03:03:40.766Z,0.00
2017-11-26T03:04:40.736Z,0.00
2017-11-26T03:05:40.710Z,0.00
2017-11-26T03:06:40.682Z,0.00
2017-11-26T03:07:40.666Z,0.00
2017-11-26T03:08:40.638Z,0.00
2017-11-26T03:09:40.604Z,0.00
2017-11-26T03:10:40.578Z,0.00
2017-11-26T03:11:40.552Z,0.00
2017-11-26T03:12:40.524Z,0.00
2017-11-26T03:13:40.505Z,0.00
2017-11-26T03:14:40.475Z,0.00
2017-11-26T03:15:40.450Z,0.00
2017-11-26T03:16:40.419Z,0.00
2017-11-26T03:17:40.395Z,0.00
2017-11-26T03:18:40.368Z,0.00
2017-11-26T03:19:40.341Z,0.00
2017-11-26T03:20:40.314Z,0.00
2017-11-26T03:21:40.287Z,0.00
2017-11-26T03:22:40.265Z,0.00
2017-11-26T03:23:40.236Z,0.00
2017-11-26T03:24:40.210Z,0.00
2017-11-26T03:25:40.180Z,0.00
2017-11-26T03:26:40.158Z,0.00
2017-11-26T03:27:40.130Z,0.00
2017-11-26T03:28:40.104Z,0.00
2017-11-26T03:29:40.078Z,0.00
2017-11-26T03:30:40.054Z,0.00
2017-11-26T03:31:40.026Z,0.00
2017-11-26T03:32:39.998Z,0.00
2017-11-26T03:33:39.973Z,0.00
2017-11-26T03:34:39.947Z,0.00
2017-11-26T03:35:39.925Z,0.00
2017-11-26T03:36:39.895Z,0.00
2017-11-26T03:37:39.868Z,0.00
2017-11-26T03:38:39.841Z,0.00
2017-11-26T03:39:39.817Z,0.00
2017-11-26T03:40:39.789Z,0.00
2017-11-26T03:41:39.764Z,0.00
2017-11-26T03:42:39.736Z,0.00
2017-11-26T03:43:39.711Z,0.00
2017-11-26T03:44:39.687Z,0.00
2017-11-26T03:45:39.659Z,0.00
2017-11-26T03:46:39.632Z,0.00
2017-11-26T03:47:39.606Z,0.00
2017-11-26T03:48:39.580Z,0.00
2017-11-26T03:49:39.553Z,0.00
2017-11-26T03:50:39.527Z,0.00
2017-11-26T03:51:39.502Z,0.00
2017-11-26T03:52:39.474Z,0.00
2017-11-26T03:53:39.449Z,0.00
2017-11-26T03:54:39.422Z,0.00
2017-11-26T03:55:39.395Z,0.00
2017-11-26T03:56:39.368Z,0.00
2017-11-26T03:57:39.347Z,0.00
2017-11-26T03:58:39.318Z,0.00
2017-11-26T03:59:39.291Z,0.00
2017-11-26T04:00:39.263Z,0.00
2017-11-26T04:01:39.238Z,0.00
2017-11-26T04:02:39.213Z,0.00
2017-11-26T04:03:39.185Z,0.00
2017-11-26T04:04:39.177Z,0.00
2017-11-26T04:05:39.139Z,0.00
2017-11-26T04:06:39.108Z,0.00
2017-11-26T04:07:39.080Z,0.00
2017-11-26T04:08:39.062Z,0.00
2017-11-26T04:09:39.032Z,0.00
2017-11-26T04:10:39.003Z,0.00
2017-11-26T04:11:38.977Z,0.00
2017-11-26T04:12:38.948Z,0.00
2017-11-26T04:13:38.925Z,0.00
2017-11-26T04:14:38.897Z,0.00
2017-11-26T04:15:38.871Z,0.00
2017-11-26T04:16:38.845Z,0.00
2017-11-26T04:17:38.818Z,0.00
2017-11-26T04:18:38.792Z,0.00
2017-11-26T04:19:38.764Z,0.00
2017-11-26T04:20:38.739Z,0.00
2017-11-26T04:21:38.714Z,0.00
2017-11-26T04:22:38.687Z,0.00
2017-11-26T04:23:38.666Z,0.00
2017-11-26T04:24:38.632Z,0.00
2017-11-26T04:25:38.607Z,0.00
2017-11-26T04:26:38.580Z,0.00
2017-11-26T04:27:38.555Z,0.00
2017-11-26T04:28:38.531Z,0.00
2017-11-26T04:29:38.501Z,0.00
2017-11-26T04:30:38.478Z,0.00
2017-11-26T04:31:38.450Z,0.00
2017-11-26T04:32:38.423Z,0.00
2017-11-26T04:33:38.397Z,0.00
2017-11-26T04:34:38.370Z,0.00
2017-11-26T04:35:38.346Z,0.00
2017-11-26T04:36:38.318Z,0.00
2017-11-26T04:37:38.292Z,0.00
2017-11-26T04:38:38.265Z,0.00
2017-11-26T04:39:38.244Z,0.00
2017-11-26T04:40:38.212Z,0.00
2017-11-26T04:41:38.186Z,0.00
2017-11-26T04:42:38.159Z,0.00
2017-11-26T04:43:38.135Z,0.00
2017-11-26T04:44:38.108Z,0.00
2017-11-26T04:45:38.081Z,0.00
2017-11-26T04:46:38.054Z,0.00
2017-11-26T04:47:38.028Z,0.00
2017-11-26T04:48:38.003Z,0.00
2017-11-26T04:49:37.975Z,0.00
2017-11-26T04:50:37.949Z,0.00
2017-11-26T04:51:37.925Z,0.00
2017-11-26T04:52:37.896Z,0.00
2017-11-26T04:53:37.872Z,0.00
2017-11-26T04:54:37.846Z,0.00
2017-11-26T04:55:37.820Z,0.00
2017-11-26T04:56:37.793Z,0.00
2017-11-26T04:57:37.764Z,0.00
2017-11-26T04:58:37.741Z,0.00
2017-11-26T04:59:37.716Z,0.00
2017-11-26T05:00:37.688Z,0.00
2017-11-26T05:01:37.660Z,0.00
2017-11-26T05:02:37.637Z,0.00
2017-11-26T05:03:37.608Z,0.00
2017-11-26T05:04:37.580Z,0.00
2017-11-26T05:05:37.554Z,0.00
2017-11-26T05:06:37.529Z,0.00
2017-11-26T05:07:37.504Z,0.00
2017-11-26T05:08:37.477Z,0.00
2017-11-26T05:09:37.451Z,0.00
2017-11-26T05:10:37.425Z,0.00
2017-11-26T05:11:37.399Z,0.00
2017-11-26T05:12:37.377Z,0.00
2017-11-26T05:13:37.345Z,0.00
2017-11-26T05:14:37.319Z,0.00
2017-11-26T05:15:37.293Z,0.00
2017-11-26T05:16:37.266Z,0.00
2017-11-26T05:17:37.240Z,0.00
2017-11-26T05:18:37.213Z,0.00
2017-11-26T05:19:37.191Z,0.00
2017-11-26T05:20:37.162Z,0.00
2017-11-26T05:21:37.136Z,0.00
2017-11-26T05:22:37.110Z,0.00
2017-11-26T05:23:37.085Z,0.00
2017-11-26T05:24:37.055Z,0.00
2017-11-26T05:25:37.029Z,0.00
2017-11-26T05:26:37.008Z,0.00
2017-11-26T05:27:36.976Z,0.00
2017-11-26T05:28:36.955Z,0.00
2017-11-26T05:29:36.923Z,0.00
2017-11-26T05:30:36.898Z,0.00
2017-11-26T05:31:36.872Z,0.00
2017-11-26T05:32:36.845Z,0.00
2017-11-26T05:33:36.817Z,0.00
2017-11-26T05:34:36.792Z,0.00
2017-11-26T05:35:36.766Z,0.00
2017-11-26T05:36:36.740Z,0.00
2017-11-26T05:37:36.711Z,0.00
2017-11-26T05:38:36.689Z,0.00
2017-11-26T05:39:36.659Z,0.00
2017-11-26T05:40:36.635Z,0.00
2017-11-26T05:41:36.610Z,0.00
2017-11-26T05:42:36.580Z,0.00
2017-11-26T05:43:36.553Z,0.00
2017-11-26T05:44:36.525Z,0.00
2017-11-26T05:45:36.500Z,0.00
2017-11-26T05:46:36.473Z,0.00
2017-11-26T05:47:36.447Z,0.00
2017-11-26T05:48:36.427Z,0.00
2017-11-26T05:49:36.393Z,0.00
2017-11-26T05:50:36.367Z,0.00
2017-11-26T05:51:36.341Z,0.00
2017-11-26T05:52:36.314Z,0.00
2017-11-26T05:53:36.287Z,0.00
2017-11-26T05:54:36.260Z,0.00
2017-11-26T05:55:36.235Z,0.00
2017-11-26T05:56:36.207Z,0.00
2017-11-26T05:57:36.181Z,0.00
2017-11-26T05:58:36.155Z,0.00
2017-11-26T05:59:36.130Z,0.00
2017-11-26T06:00:36.105Z,0.00
2017-11-26T06:01:36.077Z,0.00
2017-11-26T06:02:36.052Z,0.00
2017-11-26T06:03:36.022Z,0.00
2017-11-26T06:04:35.996Z,0.00
2017-11-26T06:05:35.968Z,0.00
2017-11-26T06:06:35.943Z,0.00
2017-11-26T06:07:35.916Z,0.00
2017-11-26T06:08:35.888Z,0.00
2017-11-26T06:09:35.863Z,0.00
2017-11-26T06:10:35.837Z,0.00
2017-11-26T06:11:35.811Z,0.00
2017-11-26T06:12:35.782Z,0.00
2017-11-26T06:13:35.759Z,0.00
2017-11-26T06:14:35.729Z,0.00
2017-11-26T06:15:35.704Z,0.00
2017-11-26T06:16:35.676Z,0.00
2017-11-26T06:17:35.652Z,0.00
2017-11-26T06:18:35.624Z,0.00
2017-11-26T06:19:35.598Z,0.00
2017-11-26T06:20:35.572Z,0.00
2017-11-26T06:21:35.545Z,0.00
2017-11-26T06:22:35.520Z,0.00
2017-11-26T06:23:35.494Z,0.00
2017-11-26T06:24:35.467Z,0.00
2017-11-26T06:25:35.440Z,0.00
2017-11-26T06:26:35.413Z,0.00
2017-11-26T06:27:35.396Z,0.00
2017-11-26T06:28:35.360Z,0.00
2017-11-26T06:29:35.335Z,0.00
2017-11-26T06:30:35.312Z,0.00
2017-11-26T06:31:35.279Z,0.00
2017-11-26T06:32:35.254Z,0.00
2017-11-26T06:33:35.229Z,0.00
2017-11-26T06:34:35.210Z,0.00
2017-11-26T06:35:35.175Z,0.00
2017-11-26T06:36:35.149Z,0.00
2017-11-26T06:37:35.125Z,0.00
2017-11-26T06:38:35.098Z,0.00
2017-11-26T06:39:35.072Z,0.00
2017-11-26T06:40:35.045Z,0.00
2017-11-26T06:41:35.022Z,0.00
2017-11-26T06:42:34.991Z,0.00
2017-11-26T06:43:34.967Z,0.00
2017-11-26T06:44:34.937Z,0.00
2017-11-26T06:45:34.913Z,0.00
2017-11-26T06:46:34.887Z,0.00
2017-11-26T06:47:34.866Z,0.00
2017-11-26T06:48:34.833Z,0.00
2017-11-26T06:49:34.808Z,0.00
2017-11-26T06:50:34.780Z,0.00
2017-11-26T06:51:34.755Z,0.00
2017-11-26T06:52:34.726Z,0.00
2017-11-26T06:53:34.703Z,0.00
2017-11-26T06:54:34.675Z,0.00
2017-11-26T06:55:34.651Z,0.00
2017-11-26T06:56:34.623Z,0.00
2017-11-26T06:57:34.596Z,0.00
2017-11-26T06:58:34.570Z,0.00
2017-11-26T06:59:34.545Z,0.00
2017-11-26T07:00:34.518Z,0.00
2017-11-26T07:01:34.491Z,0.00
2017-11-26T07:02:34.465Z,5.63
2017-11-26T07:03:34.441Z,5.63
2017-11-26T07:04:34.413Z,5.63
2017-11-26T07:05:34.385Z,5.63
2017-11-26T07:06:34.361Z,5.63
2017-11-26T07:07:34.336Z,5.63
2017-11-26T07:08:34.308Z,5.63
2017-11-26T07:09:34.280Z,5.63
2017-11-26T07:10:34.257Z,5.63
2017-11-26T07:11:34.234Z,11.25
2017-11-26T07:12:34.203Z,11.25
2017-11-26T07:13:34.175Z,11.25
2017-11-26T07:14:34.156Z,11.25
2017-11-26T07:15:34.125Z,16.88
2017-11-26T07:16:34.099Z,16.88
2017-11-26T07:17:34.073Z,16.88
2017-11-26T07:18:34.045Z,16.88
2017-11-26T07:19:34.020Z,16.88
2017-11-26T07:20:33.992Z,16.88
2017-11-26T07:21:33.969Z,16.88
2017-11-26T07:22:33.941Z,16.88
2017-11-26T07:23:33.924Z,16.88
2017-11-26T07:24:33.890Z,16.88
2017-11-26T07:25:33.866Z,16.88
2017-11-26T07:26:33.835Z,22.50
2017-11-26T07:27:33.810Z,16.88
2017-11-26T07:28:33.783Z,22.50
2017-11-26T07:29:33.780Z,22.50
2017-11-26T07:30:33.732Z,22.50
2017-11-26T07:31:33.705Z,22.50
2017-11-26T07:32:33.678Z,22.50
2017-11-26T07:33:33.653Z,28.13
2017-11-26T07:34:33.626Z,33.75
2017-11-26T07:35:33.601Z,33.75
2017-11-26T07:36:33.573Z,28.13
2017-11-26T07:37:33.549Z,33.75
2017-11-26T07:38:33.521Z,33.75
2017-11-26T07:39:33.495Z,39.38
2017-11-26T07:40:33.484Z,39.38
2017-11-26T07:41:33.443Z,39.38
2017-11-26T07:42:33.417Z,39.38
2017-11-26T07:43:33.400Z,33.75
2017-11-26T07:44:33.362Z,45.00
2017-11-26T07:45:33.341Z,45.00
2017-11-26T07:46:33.312Z,50.63
2017-11-26T07:47:33.287Z,45.00
2017-11-26T07:48:33.260Z,45.00
2017-11-26T07:49:33.237Z,45.00
2017-11-26T07:50:33.208Z,50.63
2017-11-26T07:51:33.183Z,50.63
2017-11-26T07:52:33.156Z,50.63
2017-11-26T07:53:33.130Z,50.63
2017-11-26T07:54:33.105Z,39.38
2017-11-26T07:55:33.079Z,50.63
2017-11-26T07:56:33.052Z,67.50
2017-11-26T07:57:33.024Z,61.88
2017-11-26T07:58:33.001Z,73.13
2017-11-26T07:59:32.975Z,84.38
2017-11-26T08:00:32.947Z,78.75
2017-11-26T08:01:32.922Z,78.75
2017-11-26T08:02:32.901Z,56.25
2017-11-26T08:03:32.870Z,50.63
2017-11-26T08:04:32.842Z,50.63
2017-11-26T08:05:32.817Z,56.25
2017-11-26T08:06:32.791Z,50.63
2017-11-26T08:07:32.766Z,56.25
2017-11-26T08:08:32.738Z,61.88
2017-11-26T08:09:32.715Z,56.25
2017-11-26T08:10:32.688Z,45.00
2017-11-26T08:11:32.663Z,56.25
2017-11-26T08:12:32.635Z,67.50
2017-11-26T08:13:32.611Z,67.50
2017-11-26T08:14:32.585Z,56.25
2017-11-26T08:15:32.558Z,67.50
2017-11-26T08:16:32.530Z,84.38
2017-11-26T08:17:32.507Z,101.25
2017-11-26T08:18:32.482Z,118.13
2017-11-26T08:19:32.456Z,140.63
2017-11-26T08:20:32.431Z,146.25
2017-11-26T08:21:32.403Z,129.38
2017-11-26T08:22:32.378Z,129.38
2017-11-26T08:23:32.357Z,157.50
2017-11-26T08:24:32.340Z,163.13
2017-11-26T08:25:32.303Z,174.38
2017-11-26T08:26:32.276Z,168.75
2017-11-26T08:27:32.251Z,135.00
2017-11-26T08:28:32.225Z,140.63
2017-11-26T08:29:32.198Z,135.00
2017-11-26T08:30:32.177Z,112.50
2017-11-26T08:31:32.147Z,118.13
2017-11-26T08:32:32.123Z,118.13
2017-11-26T08:33:32.098Z,123.75
2017-11-26T08:34:32.072Z,129.38
2017-11-26T08:35:32.046Z,123.75
2017-11-26T08:36:32.021Z,140.63
2017-11-26T08:37:31.995Z,163.13
2017-11-26T08:38:31.975Z,174.38
2017-11-26T08:39:31.945Z,174.38
2017-11-26T08:40:31.920Z,163.13
2017-11-26T08:41:31.895Z,146.25
2017-11-26T08:42:31.869Z,135.00
2017-11-26T08:43:31.844Z,129.38
2017-11-26T08:44:31.817Z,146.25
2017-11-26T08:45:31.793Z,135.00
2017-11-26T08:46:31.766Z,140.63
2017-11-26T08:47:31.741Z,129.38
2017-11-26T08:48:31.718Z,151.88
2017-11-26T08:49:31.690Z,174.38
2017-11-26T08:50:31.667Z,208.13
2017-11-26T08:51:31.640Z,225.00
2017-11-26T08:52:31.614Z,225.00
2017-11-26T08:53:31.589Z,185.63
2017-11-26T08:54:31.562Z,174.38
2017-11-26T08:55:31.538Z,174.38
2017-11-26T08:56:31.519Z,191.25
2017-11-26T08:57:31.488Z,168.75
2017-11-26T08:58:31.463Z,180.00
2017-11-26T08:59:31.462Z,180.00
2017-11-26T09:00:31.429Z,185.63
2017-11-26T09:01:31.389Z,180.00
2017-11-26T09:02:31.362Z,196.88
2017-11-26T09:03:31.335Z,180.00
2017-11-26T09:04:31.325Z,191.25
2017-11-26T09:05:31.286Z,202.50
2017-11-26T09:06:31.267Z,202.50
2017-11-26T09:07:31.236Z,140.63
2017-11-26T09:08:31.207Z,135.00
2017-11-26T09:09:31.183Z,135.00
2017-11-26T09:10:31.162Z,140.63
2017-11-26T09:11:31.139Z,151.88
2017-11-26T09:12:31.109Z,174.38
2017-11-26T09:13:31.086Z,185.63
2017-11-26T09:14:31.060Z,191.25
2017-11-26T09:15:31.033Z,168.75
2017-11-26T09:16:31.009Z,151.88
2017-11-26T09:17:30.984Z,135.00
2017-11-26T09:18:30.962Z,151.88
2017-11-26T09:19:30.934Z,163.13
2017-11-26T09:20:30.909Z,157.50
2017-11-26T09:21:30.884Z,163.13
2017-11-26T09:22:30.859Z,180.00
2017-11-26T09:23:30.834Z,174.38
2017-11-26T09:24:30.809Z,163.13
2017-11-26T09:25:30.783Z,196.88
2017-11-26T09:26:30.760Z,230.63
2017-11-26T09:27:30.736Z,275.63
2017-11-26T09:28:30.709Z,298.13
2017-11-26T09:29:30.686Z,230.63
2017-11-26T09:30:30.659Z,168.75
2017-11-26T09:31:30.634Z,151.88
2017-11-26T09:32:30.607Z,157.50
2017-11-26T09:33:30.585Z,151.88
2017-11-26T09:34:30.563Z,140.63
2017-11-26T09:35:30.541Z,157.50
2017-11-26T09:36:30.510Z,135.00
2017-11-26T09:37:30.485Z,129.38
2017-11-26T09:38:30.462Z,135.00
2017-11-26T09:39:30.437Z,101.25
2017-11-26T09:40:30.412Z,90.00
2017-11-26T09:41:30.388Z,106.88
2017-11-26T09:42:30.360Z,118.13
2017-11-26T09:43:30.338Z,123.75
2017-11-26T09:44:30.315Z,129.38
2017-11-26T09:45:30.288Z,157.50
2017-11-26T09:46:30.265Z,180.00
2017-11-26T09:47:30.237Z,185.63
2017-11-26T09:48:30.213Z,208.13
2017-11-26T09:49:30.187Z,236.25
2017-11-26T09:50:30.163Z,281.25
2017-11-26T09:51:30.137Z,275.63
2017-11-26T09:52:30.113Z,230.63
2017-11-26T09:53:30.088Z,202.50
2017-11-26T09:54:30.064Z,191.25
2017-11-26T09:55:30.039Z,219.38
2017-11-26T09:56:30.016Z,225.00
2017-11-26T09:57:29.991Z,208.13
2017-11-26T09:58:29.965Z,157.50
2017-11-26T09:59:29.940Z,146.25
2017-11-26T10:00:29.917Z,174.38
2017-11-26T10:01:29.891Z,157.50
2017-11-26T10:02:29.872Z,140.63
2017-11-26T10:03:29.846Z,135.00
2017-11-26T10:04:29.839Z,118.13
2017-11-26T10:05:29.793Z,163.13
2017-11-26T10:06:29.770Z,151.88
2017-11-26T10:07:29.746Z,129.38
2017-11-26T10:08:29.719Z,151.88
2017-11-26T10:09:29.694Z,146.25
2017-11-26T10:10:29.671Z,129.38
2017-11-26T10:11:29.646Z,146.25
2017-11-26T10:12:29.619Z,151.88
2017-11-26T10:13:29.596Z,157.50
2017-11-26T10:14:29.572Z,163.13
2017-11-26T10:15:29.547Z,168.75
2017-11-26T10:16:29.596Z,191.25
2017-11-26T10:17:29.605Z,180.00
2017-11-26T10:18:29.480Z,163.13
2017-11-26T10:19:29.530Z,185.63
2017-11-26T10:20:29.425Z,196.88
2017-11-26T10:21:29.398Z,146.25
2017-11-26T10:22:29.372Z,101.25
2017-11-26T10:23:29.372Z,84.38
2017-11-26T10:24:29.397Z,90.00
2017-11-26T10:25:29.325Z,101.25
2017-11-26T10:26:29.368Z,106.88
2017-11-26T10:27:29.316Z,123.75
2017-11-26T10:28:29.292Z,157.50
2017-11-26T10:29:29.268Z,157.50
2017-11-26T10:30:29.218Z,146.25
2017-11-26T10:31:29.240Z,157.50
2017-11-26T10:32:29.175Z,196.88
2017-11-26T10:33:29.189Z,225.00
2017-11-26T10:34:29.070Z,219.38
2017-11-26T10:35:29.052Z,196.88
2017-11-26T10:36:29.025Z,185.63
2017-11-26T10:37:29.002Z,157.50
2017-11-26T10:38:28.977Z,140.63
2017-11-26T10:39:28.952Z,157.50
2017-11-26T10:40:28.976Z,168.75
2017-11-26T10:41:29.966Z,191.25
2017-11-26T10:42:28.884Z,208.13
2017-11-26T10:43:28.851Z,174.38
2017-11-26T10:44:28.942Z,146.25
2017-11-26T10:45:28.853Z,129.38
2017-11-26T10:46:28.810Z,112.50
2017-11-26T10:47:28.851Z,118.13
2017-11-26T10:48:28.809Z,135.00
2017-11-26T10:49:28.772Z,118.13
2017-11-26T10:50:28.779Z,101.25
2017-11-26T10:51:28.650Z,135.00
2017-11-26T10:52:28.630Z,157.50
2017-11-26T10:53:28.607Z,191.25
2017-11-26T10:54:28.583Z,180.00
2017-11-26T10:55:28.556Z,168.75
2017-11-26T10:56:28.532Z,168.75
2017-11-26T10:57:28.507Z,157.50
2017-11-26T10:58:28.481Z,146.25
2017-11-26T10:59:28.476Z,146.25
2017-11-26T11:00:28.433Z,135.00
2017-11-26T11:01:28.408Z,101.25
2017-11-26T11:02:28.432Z,78.75
2017-11-26T11:03:28.451Z,73.13
2017-11-26T11:04:28.336Z,61.88
2017-11-26T11:05:28.368Z,67.50
2017-11-26T11:06:28.286Z,78.75
2017-11-26T11:07:28.351Z,90.00
2017-11-26T11:08:28.302Z,106.88
2017-11-26T11:09:28.290Z,118.13
2017-11-26T11:10:28.186Z,106.88
2017-11-26T11:11:28.162Z,95.63
2017-11-26T11:12:28.136Z,101.25
2017-11-26T11:13:28.112Z,106.88
2017-11-26T11:14:28.090Z,106.88
2017-11-26T11:15:28.063Z,101.25
2017-11-26T11:16:28.036Z,151.88
2017-11-26T11:17:28.009Z,146.25
2017-11-26T11:18:27.986Z,196.88
2017-11-26T11:19:28.041Z,225.00
2017-11-26T11:20:27.938Z,247.50
2017-11-26T11:21:27.972Z,196.88
2017-11-26T11:22:27.890Z,230.63
2017-11-26T11:23:27.863Z,292.50
2017-11-26T11:24:27.841Z,360.00
2017-11-26T11:25:27.821Z,455.63
2017-11-26T11:26:27.796Z,1141.88
2017-11-26T11:27:27.867Z,540.00
2017-11-26T11:28:27.740Z,1018.13
2017-11-26T11:29:27.719Z,939.38
2017-11-26T11:30:27.693Z,495.00
2017-11-26T11:31:27.670Z,315.00
2017-11-26T11:32:27.687Z,320.63
2017-11-26T11:33:27.663Z,331.88
2017-11-26T11:34:27.597Z,270.00
2017-11-26T11:35:27.580Z,253.13
2017-11-26T11:36:27.649Z,343.13
2017-11-26T11:37:27.567Z,303.75
2017-11-26T11:38:27.603Z,247.50
2017-11-26T11:39:27.548Z,264.38
2017-11-26T11:40:27.478Z,298.13
2017-11-26T11:41:27.432Z,320.63
2017-11-26T11:42:27.408Z,410.63
2017-11-26T11:43:27.384Z,804.38
2017-11-26T11:44:27.360Z,579.38
2017-11-26T11:45:27.339Z,703.13
2017-11-26T11:46:27.310Z,753.75
2017-11-26T11:47:27.289Z,478.13
2017-11-26T11:48:27.265Z,590.63
2017-11-26T11:49:27.251Z,511.88
2017-11-26T11:50:27.220Z,517.50
2017-11-26T11:51:27.197Z,714.38
2017-11-26T11:52:27.175Z,461.25
2017-11-26T11:53:27.149Z,450.00
2017-11-26T11:54:27.123Z,736.88
2017-11-26T11:55:27.106Z,686.25
2017-11-26T11:56:27.084Z,1119.38
2017-11-26T11:57:27.054Z,990.00
2017-11-26T11:58:27.037Z,1170.00
2017-11-26T11:59:27.016Z,1198.13
2017-11-26T12:00:26.990Z,1119.38
2017-11-26T12:01:26.969Z,1006.88
2017-11-26T12:02:26.946Z,832.50
2017-11-26T12:03:26.925Z,590.63
2017-11-26T12:04:26.902Z,888.75
2017-11-26T12:05:26.882Z,950.63
2017-11-26T12:06:26.865Z,607.50
2017-11-26T12:07:26.880Z,433.13
2017-11-26T12:08:26.816Z,455.63
2017-11-26T12:09:26.793Z,669.38
2017-11-26T12:10:26.773Z,596.25
2017-11-26T12:11:26.748Z,849.38
2017-11-26T12:12:26.728Z,556.88
2017-11-26T12:13:26.708Z,326.25
2017-11-26T12:14:26.687Z,309.38
2017-11-26T12:15:26.665Z,309.38
2017-11-26T12:16:26.644Z,343.13
2017-11-26T12:17:26.626Z,382.50
2017-11-26T12:18:26.598Z,416.25
2017-11-26T12:19:26.576Z,399.38
2017-11-26T12:20:26.560Z,298.13
2017-11-26T12:21:26.533Z,281.25
2017-11-26T12:22:26.510Z,247.50
2017-11-26T12:23:26.488Z,236.25
2017-11-26T12:24:26.465Z,208.13
2017-11-26T12:25:26.442Z,213.75
2017-11-26T12:26:26.425Z,174.38
2017-11-26T12:27:26.397Z,135.00
2017-11-26T12:28:26.374Z,95.63
2017-11-26T12:29:26.351Z,90.00
2017-11-26T12:30:26.328Z,95.63
2017-11-26T12:31:26.305Z,146.25
2017-11-26T12:32:26.295Z,129.38
2017-11-26T12:33:26.260Z,112.50
2017-11-26T12:34:26.236Z,101.25
2017-11-26T12:35:26.213Z,95.63
2017-11-26T12:36:26.188Z,84.38
2017-11-26T12:37:26.164Z,73.13
2017-11-26T12:38:26.141Z,78.75
2017-11-26T12:39:26.117Z,90.00
2017-11-26T12:40:26.093Z,90.00
2017-11-26T12:41:26.069Z,78.75
2017-11-26T12:42:26.045Z,84.38
2017-11-26T12:43:26.023Z,78.75
2017-11-26T12:44:25.998Z,67.50
2017-11-26T12:45:25.974Z,73.13
2017-11-26T12:46:25.949Z,84.38
2017-11-26T12:47:25.931Z,106.88
2017-11-26T12:48:25.900Z,123.75
2017-11-26T12:49:25.877Z,118.13
2017-11-26T12:50:25.851Z,112.50
2017-11-26T12:51:25.830Z,95.63
2017-11-26T12:52:25.803Z,84.38
2017-11-26T12:53:25.779Z,78.75
2017-11-26T12:54:25.757Z,78.75
2017-11-26T12:55:25.731Z,78.75
2017-11-26T12:56:25.706Z,78.75
2017-11-26T12:57:25.688Z,78.75
2017-11-26T12:58:25.658Z,78.75
2017-11-26T12:59:25.648Z,73.13
2017-11-26T13:00:25.619Z,78.75
2017-11-26T13:01:25.586Z,78.75
2017-11-26T13:02:25.564Z,78.75
2017-11-26T13:03:25.530Z,78.75
2017-11-26T13:04:25.513Z,90.00